sensor_id;sensor_type;location;lat;lon;timestamp;pressure;altitude;pressure_sealevel;temperature;humidity
43553;BME280;29153;42.696;23.218;2023-06-24T00:01:48;94507.55;;;18.07;100.00
43553;BME280;29153;42.696;23.218;2023-06-24T00:04:15;94497.55;;;18.02;100.00
43553;BME280;29153;42.696;23.218;2023-06-24T00:06:44;94493.39;;;17.98;100.00
43553;BME280;29153;42.696;23.218;2023-06-24T00:09:12;94506.79;;;17.98;100.00
43553;BME280;29153;42.696;23.218;2023-06-24T00:11:39;94499.95;;;17.95;100.00
43553;BME280;29153;42.696;23.218;2023-06-24T00:14:07;94499.64;;;17.96;100.00
43553;BME280;29153;42.696;23.218;2023-06-24T00:16:35;94494.45;;;17.91;100.00
43553;BME280;29153;42.696;23.218;2023-06-24T00:19:03;94497.19;;;17.89;100.00
43553;BME280;29153;42.696;23.218;2023-06-24T00:21:30;94498.00;;;17.81;100.00
43553;BME280;29153;42.696;23.218;2023-06-24T00:23:59;94503.70;;;17.79;100.00
43553;BME280;29153;42.696;23.218;2023-06-24T00:26:28;94498.34;;;17.79;100.00
43553;BME280;29153;42.696;23.218;2023-06-24T00:28:56;94497.16;;;17.74;100.00
43553;BME280;29153;42.696;23.218;2023-06-24T00:31:23;94502.43;;;17.77;100.00
43553;BME280;29153;42.696;23.218;2023-06-24T00:33:51;94508.98;;;17.73;100.00
43553;BME280;29153;42.696;23.218;2023-06-24T00:36:18;94513.89;;;17.71;100.00
43553;BME280;29153;42.696;23.218;2023-06-24T00:38:46;94505.91;;;17.68;100.00
43553;BME280;29153;42.696;23.218;2023-06-24T00:41:16;94500.80;;;17.69;100.00
43553;BME280;29153;42.696;23.218;2023-06-24T00:43:45;94502.92;;;17.70;100.00
43553;BME280;29153;42.696;23.218;2023-06-24T00:46:14;94495.68;;;17.70;100.00
43553;BME280;29153;42.696;23.218;2023-06-24T00:48:41;94495.91;;;17.63;100.00
43553;BME280;29153;42.696;23.218;2023-06-24T00:51:09;94488.27;;;17.59;100.00
43553;BME280;29153;42.696;23.218;2023-06-24T00:53:37;94484.81;;;17.67;100.00
43553;BME280;29153;42.696;23.218;2023-06-24T00:56:05;94486.70;;;17.66;100.00
43553;BME280;29153;42.696;23.218;2023-06-24T00:58:34;94476.05;;;17.55;100.00
43553;BME280;29153;42.696;23.218;2023-06-24T01:01:03;94479.52;;;17.47;100.00
43553;BME280;29153;42.696;23.218;2023-06-24T01:03:32;94393.99;;;16.93;100.00
43553;BME280;29153;42.696;23.218;2023-06-24T01:06:00;94484.41;;;17.54;100.00
43553;BME280;29153;42.696;23.218;2023-06-24T01:08:27;94480.84;;;17.56;100.00
43553;BME280;29153;42.696;23.218;2023-06-24T01:10:55;94475.25;;;17.55;100.00
43553;BME280;29153;42.696;23.218;2023-06-24T01:13:22;94475.65;;;17.51;100.00
43553;BME280;29153;42.696;23.218;2023-06-24T01:15:50;94478.81;;;17.53;100.00
43553;BME280;29153;42.696;23.218;2023-06-24T01:18:21;94472.38;;;17.45;100.00
43553;BME280;29153;42.696;23.218;2023-06-24T01:26:53;94474.87;;;17.42;100.00
43553;BME280;29153;42.696;23.218;2023-06-24T01:32:23;94478.13;;;17.33;100.00
43553;BME280;29153;42.696;23.218;2023-06-24T01:34:59;94486.32;;;17.27;100.00
43553;BME280;29153;42.696;23.218;2023-06-24T01:37:29;94493.32;;;17.26;100.00
43553;BME280;29153;42.696;23.218;2023-06-24T01:42:42;94499.92;;;17.28;100.00
43553;BME280;29153;42.696;23.218;2023-06-24T01:45:20;94513.09;;;17.36;100.00
43553;BME280;29153;42.696;23.218;2023-06-24T01:47:46;94511.91;;;17.31;100.00
43553;BME280;29153;42.696;23.218;2023-06-24T01:50:16;94512.16;;;17.32;100.00
43553;BME280;29153;42.696;23.218;2023-06-24T01:52:45;94510.66;;;17.20;100.00
43553;BME280;29153;42.696;23.218;2023-06-24T01:55:17;94514.19;;;17.09;100.00
43553;BME280;29153;42.696;23.218;2023-06-24T01:57:44;94510.17;;;17.09;100.00
43553;BME280;29153;42.696;23.218;2023-06-24T02:00:13;94511.27;;;17.08;100.00
43553;BME280;29153;42.696;23.218;2023-06-24T02:02:41;94518.20;;;17.09;100.00
43553;BME280;29153;42.696;23.218;2023-06-24T02:05:09;94516.07;;;17.09;100.00
43553;BME280;29153;42.696;23.218;2023-06-24T02:07:36;94521.58;;;17.12;100.00
43553;BME280;29153;42.696;23.218;2023-06-24T02:10:06;94527.27;;;17.11;100.00
43553;BME280;29153;42.696;23.218;2023-06-24T02:12:35;94527.72;;;17.13;100.00
43553;BME280;29153;42.696;23.218;2023-06-24T02:15:05;94524.05;;;17.11;100.00
43553;BME280;29153;42.696;23.218;2023-06-24T02:17:34;94524.59;;;17.11;100.00
43553;BME280;29153;42.696;23.218;2023-06-24T02:20:05;94527.17;;;17.13;100.00
43553;BME280;29153;42.696;23.218;2023-06-24T02:22:34;94539.47;;;17.14;100.00
43553;BME280;29153;42.696;23.218;2023-06-24T02:25:01;94534.52;;;17.19;100.00
43553;BME280;29153;42.696;23.218;2023-06-24T02:27:30;94538.68;;;17.22;100.00
43553;BME280;29153;42.696;23.218;2023-06-24T02:29:59;94547.73;;;17.15;100.00
43553;BME280;29153;42.696;23.218;2023-06-24T02:32:27;94558.61;;;17.19;100.00
43553;BME280;29153;42.696;23.218;2023-06-24T02:34:56;94559.39;;;17.11;100.00
43553;BME280;29153;42.696;23.218;2023-06-24T02:37:25;94561.11;;;17.07;100.00
43553;BME280;29153;42.696;23.218;2023-06-24T02:39:53;94556.45;;;17.01;100.00
43553;BME280;29153;42.696;23.218;2023-06-24T02:42:20;94555.19;;;17.07;100.00
43553;BME280;29153;42.696;23.218;2023-06-24T02:44:48;94554.97;;;17.06;100.00
43553;BME280;29153;42.696;23.218;2023-06-24T02:47:17;94555.11;;;17.01;100.00
43553;BME280;29153;42.696;23.218;2023-06-24T02:49:47;94564.25;;;17.09;100.00
43553;BME280;29153;42.696;23.218;2023-06-24T02:52:16;94560.18;;;17.11;100.00
43553;BME280;29153;42.696;23.218;2023-06-24T02:54:44;94563.22;;;17.07;100.00
43553;BME280;29153;42.696;23.218;2023-06-24T02:57:12;94561.26;;;17.02;100.00
43553;BME280;29153;42.696;23.218;2023-06-24T02:59:42;94569.53;;;17.03;100.00
43553;BME280;29153;42.696;23.218;2023-06-24T03:02:10;94564.09;;;17.05;100.00
43553;BME280;29153;42.696;23.218;2023-06-24T03:04:38;94516.27;;;16.75;100.00
43553;BME280;29153;42.696;23.218;2023-06-24T03:07:07;94559.98;;;16.99;100.00
43553;BME280;29153;42.696;23.218;2023-06-24T03:09:36;94554.55;;;16.93;100.00
43553;BME280;29153;42.696;23.218;2023-06-24T03:12:06;94560.08;;;17.05;100.00
43553;BME280;29153;42.696;23.218;2023-06-24T03:14:33;94561.82;;;17.10;100.00
43553;BME280;29153;42.696;23.218;2023-06-24T03:17:01;94455.98;;;16.41;100.00
43553;BME280;29153;42.696;23.218;2023-06-24T03:19:29;94567.31;;;17.05;100.00
43553;BME280;29153;42.696;23.218;2023-06-24T03:21:57;94565.19;;;17.04;100.00
43553;BME280;29153;42.696;23.218;2023-06-24T03:24:24;94569.45;;;17.05;100.00
43553;BME280;29153;42.696;23.218;2023-06-24T03:26:52;94571.48;;;17.08;100.00
43553;BME280;29153;42.696;23.218;2023-06-24T03:29:21;94578.44;;;17.18;100.00
43553;BME280;29153;42.696;23.218;2023-06-24T03:31:49;94581.20;;;17.15;100.00
43553;BME280;29153;42.696;23.218;2023-06-24T03:34:17;94584.98;;;17.23;100.00
43553;BME280;29153;42.696;23.218;2023-06-24T03:36:44;94586.34;;;17.32;100.00
43553;BME280;29153;42.696;23.218;2023-06-24T03:39:12;94588.14;;;17.42;100.00
43553;BME280;29153;42.696;23.218;2023-06-24T03:41:39;94594.39;;;17.49;100.00
43553;BME280;29153;42.696;23.218;2023-06-24T03:44:07;94595.79;;;17.55;100.00
43553;BME280;29153;42.696;23.218;2023-06-24T03:46:34;94604.04;;;17.67;100.00
43553;BME280;29153;42.696;23.218;2023-06-24T03:49:02;94608.82;;;17.67;100.00
43553;BME280;29153;42.696;23.218;2023-06-24T03:51:30;94600.96;;;17.71;100.00
43553;BME280;29153;42.696;23.218;2023-06-24T03:53:57;94607.02;;;17.74;100.00
43553;BME280;29153;42.696;23.218;2023-06-24T03:56:25;94606.14;;;17.76;100.00
43553;BME280;29153;42.696;23.218;2023-06-24T03:58:53;94603.45;;;17.85;100.00
43553;BME280;29153;42.696;23.218;2023-06-24T04:01:20;94600.77;;;17.93;100.00
43553;BME280;29153;42.696;23.218;2023-06-24T04:03:48;94599.97;;;18.01;100.00
43553;BME280;29153;42.696;23.218;2023-06-24T04:06:15;94600.34;;;18.14;100.00
43553;BME280;29153;42.696;23.218;2023-06-24T04:08:43;94609.70;;;18.23;100.00
43553;BME280;29153;42.696;23.218;2023-06-24T04:11:10;94609.52;;;18.37;100.00
43553;BME280;29153;42.696;23.218;2023-06-24T04:13:38;94604.69;;;18.45;100.00
43553;BME280;29153;42.696;23.218;2023-06-24T04:16:06;94599.25;;;18.56;100.00
43553;BME280;29153;42.696;23.218;2023-06-24T04:18:35;94557.22;;;18.37;100.00
43553;BME280;29153;42.696;23.218;2023-06-24T04:21:04;94598.05;;;18.74;100.00
43553;BME280;29153;42.696;23.218;2023-06-24T04:23:33;94590.75;;;18.83;100.00
43553;BME280;29153;42.696;23.218;2023-06-24T04:26:01;94586.69;;;18.92;100.00
43553;BME280;29153;42.696;23.218;2023-06-24T04:28:28;94581.51;;;19.01;100.00
43553;BME280;29153;42.696;23.218;2023-06-24T04:30:56;94579.56;;;19.10;100.00
43553;BME280;29153;42.696;23.218;2023-06-24T04:33:23;94583.48;;;19.28;100.00
43553;BME280;29153;42.696;23.218;2023-06-24T04:35:51;94588.02;;;19.36;100.00
43553;BME280;29153;42.696;23.218;2023-06-24T04:38:18;94591.46;;;19.45;100.00
43553;BME280;29153;42.696;23.218;2023-06-24T04:40:46;94600.93;;;19.57;100.00
43553;BME280;29153;42.696;23.218;2023-06-24T04:43:14;94597.52;;;19.69;100.00
43553;BME280;29153;42.696;23.218;2023-06-24T04:45:41;94597.91;;;19.79;100.00
43553;BME280;29153;42.696;23.218;2023-06-24T04:48:09;94592.82;;;19.92;100.00
43553;BME280;29153;42.696;23.218;2023-06-24T04:50:36;94604.73;;;20.04;100.00
43553;BME280;29153;42.696;23.218;2023-06-24T04:53:04;94608.36;;;20.14;100.00
43553;BME280;29153;42.696;23.218;2023-06-24T04:55:32;94604.77;;;20.16;100.00
43553;BME280;29153;42.696;23.218;2023-06-24T04:58:00;94608.81;;;20.36;100.00
43553;BME280;29153;42.696;23.218;2023-06-24T05:00:27;94606.70;;;20.54;100.00
43553;BME280;29153;42.696;23.218;2023-06-24T05:02:55;94598.99;;;20.65;100.00
43553;BME280;29153;42.696;23.218;2023-06-24T05:05:22;94606.97;;;20.73;100.00
43553;BME280;29153;42.696;23.218;2023-06-24T05:07:50;94610.99;;;20.79;100.00
43553;BME280;29153;42.696;23.218;2023-06-24T05:10:17;94601.59;;;20.85;100.00
43553;BME280;29153;42.696;23.218;2023-06-24T05:12:45;94607.09;;;20.95;100.00
43553;BME280;29153;42.696;23.218;2023-06-24T05:15:13;94605.41;;;21.03;100.00
43553;BME280;29153;42.696;23.218;2023-06-24T05:17:41;94601.39;;;21.15;100.00
43553;BME280;29153;42.696;23.218;2023-06-24T05:20:09;94605.67;;;21.22;100.00
43553;BME280;29153;42.696;23.218;2023-06-24T05:22:36;94601.71;;;21.31;100.00
43553;BME280;29153;42.696;23.218;2023-06-24T05:25:04;94585.77;;;21.32;100.00
43553;BME280;29153;42.696;23.218;2023-06-24T05:27:32;94594.19;;;21.37;100.00
43553;BME280;29153;42.696;23.218;2023-06-24T05:30:00;94593.30;;;21.39;100.00
43553;BME280;29153;42.696;23.218;2023-06-24T05:32:27;94596.76;;;21.46;100.00
43553;BME280;29153;42.696;23.218;2023-06-24T05:34:55;94598.20;;;21.49;100.00
43553;BME280;29153;42.696;23.218;2023-06-24T05:37:22;94599.45;;;21.52;100.00
43553;BME280;29153;42.696;23.218;2023-06-24T05:39:50;94601.27;;;21.48;100.00
43553;BME280;29153;42.696;23.218;2023-06-24T05:42:18;94597.05;;;21.68;100.00
43553;BME280;29153;42.696;23.218;2023-06-24T05:44:45;94597.81;;;21.75;100.00
43553;BME280;29153;42.696;23.218;2023-06-24T05:47:13;94597.25;;;21.75;100.00
43553;BME280;29153;42.696;23.218;2023-06-24T05:49:41;94595.66;;;21.93;100.00
43553;BME280;29153;42.696;23.218;2023-06-24T05:52:08;94592.36;;;21.99;100.00
43553;BME280;29153;42.696;23.218;2023-06-24T05:54:36;94592.81;;;21.95;100.00
43553;BME280;29153;42.696;23.218;2023-06-24T05:57:03;94587.17;;;22.06;100.00
43553;BME280;29153;42.696;23.218;2023-06-24T05:59:35;94588.44;;;21.97;99.67
43553;BME280;29153;42.696;23.218;2023-06-24T06:02:03;94589.97;;;22.10;99.09
43553;BME280;29153;42.696;23.218;2023-06-24T06:04:30;94586.09;;;22.17;97.35
43553;BME280;29153;42.696;23.218;2023-06-24T06:06:58;94583.00;;;22.31;97.15
43553;BME280;29153;42.696;23.218;2023-06-24T06:09:25;94591.33;;;22.32;96.24
43553;BME280;29153;42.696;23.218;2023-06-24T06:11:53;94589.41;;;22.32;96.45
43553;BME280;29153;42.696;23.218;2023-06-24T06:14:20;94597.46;;;22.38;96.23
43553;BME280;29153;42.696;23.218;2023-06-24T06:16:48;94596.09;;;22.44;95.67
43553;BME280;29153;42.696;23.218;2023-06-24T06:19:16;94592.27;;;22.45;97.04
43553;BME280;29153;42.696;23.218;2023-06-24T06:21:43;94587.74;;;22.49;96.34
43553;BME280;29153;42.696;23.218;2023-06-24T06:24:11;94592.41;;;22.58;98.45
43553;BME280;29153;42.696;23.218;2023-06-24T06:26:45;94592.30;;;22.55;95.18
43553;BME280;29153;42.696;23.218;2023-06-24T06:29:24;94591.27;;;22.59;95.94
43553;BME280;29153;42.696;23.218;2023-06-24T06:41:46;94607.08;;;22.73;93.12
43553;BME280;29153;42.696;23.218;2023-06-24T10:46:14;94484.94;;;30.56;51.46
43553;BME280;29153;42.696;23.218;2023-06-24T10:48:39;94481.39;;;30.62;50.80
43553;BME280;29153;42.696;23.218;2023-06-24T10:51:06;94463.47;;;30.80;54.07
43553;BME280;29153;42.696;23.218;2023-06-24T10:53:34;94465.20;;;30.82;54.08
43553;BME280;29153;42.696;23.218;2023-06-24T10:56:02;94471.12;;;30.73;46.57
43553;BME280;29153;42.696;23.218;2023-06-24T10:58:30;94464.30;;;30.73;49.95
43553;BME280;29153;42.696;23.218;2023-06-24T11:01:08;94465.77;;;30.59;48.99
43553;BME280;29153;42.696;23.218;2023-06-24T11:03:35;94461.98;;;30.39;50.91
43553;BME280;29153;42.696;23.218;2023-06-24T11:06:05;94454.63;;;30.62;50.82
43553;BME280;29153;42.696;23.218;2023-06-24T11:08:32;94459.95;;;30.80;52.67
43553;BME280;29153;42.696;23.218;2023-06-24T11:11:00;94461.02;;;30.93;49.00
43553;BME280;29153;42.696;23.218;2023-06-24T11:13:33;94462.97;;;30.92;48.31
43553;BME280;29153;42.696;23.218;2023-06-24T11:16:00;94462.89;;;31.03;50.55
43553;BME280;29153;42.696;23.218;2023-06-24T11:18:36;94462.95;;;31.18;50.42
43553;BME280;29153;42.696;23.218;2023-06-24T11:20:59;94461.31;;;31.24;48.72
43553;BME280;29153;42.696;23.218;2023-06-24T11:23:26;94460.00;;;31.39;48.37
43553;BME280;29153;42.696;23.218;2023-06-24T11:25:54;94448.52;;;31.33;51.22
43553;BME280;29153;42.696;23.218;2023-06-24T11:28:23;94449.44;;;31.38;45.17
43553;BME280;29153;42.696;23.218;2023-06-24T11:30:53;94452.13;;;31.41;44.58
43553;BME280;29153;42.696;23.218;2023-06-24T11:33:29;94449.78;;;31.43;48.00
43553;BME280;29153;42.696;23.218;2023-06-24T11:35:56;94453.15;;;31.39;46.03
43553;BME280;29153;42.696;23.218;2023-06-24T11:38:24;94447.86;;;31.40;48.88
43553;BME280;29153;42.696;23.218;2023-06-24T11:40:57;94451.29;;;31.29;44.94
43553;BME280;29153;42.696;23.218;2023-06-24T11:43:26;94441.17;;;31.45;43.49
43553;BME280;29153;42.696;23.218;2023-06-24T11:45:53;94438.13;;;31.54;48.19
43553;BME280;29153;42.696;23.218;2023-06-24T11:48:21;94434.23;;;31.52;47.50
43553;BME280;29153;42.696;23.218;2023-06-24T11:50:55;94429.21;;;31.66;47.24
43553;BME280;29153;42.696;23.218;2023-06-24T11:53:42;94429.15;;;31.84;50.29
43553;BME280;29153;42.696;23.218;2023-06-24T11:56:10;94425.40;;;31.71;43.92
43553;BME280;29153;42.696;23.218;2023-06-24T11:58:38;94420.06;;;31.76;45.88
43553;BME280;29153;42.696;23.218;2023-06-24T12:01:09;94411.34;;;31.50;46.69
43553;BME280;29153;42.696;23.218;2023-06-24T12:03:36;94401.63;;;31.46;47.27
43553;BME280;29153;42.696;23.218;2023-06-24T12:06:04;94396.82;;;31.23;46.79
43553;BME280;29153;42.696;23.218;2023-06-24T12:08:31;94387.73;;;31.11;47.61
43553;BME280;29153;42.696;23.218;2023-06-24T12:10:59;94387.30;;;31.16;46.51
43553;BME280;29153;42.696;23.218;2023-06-24T12:13:26;94380.55;;;31.09;45.97
43553;BME280;29153;42.696;23.218;2023-06-24T12:15:54;94376.44;;;31.09;43.49
43553;BME280;29153;42.696;23.218;2023-06-24T12:18:22;94379.17;;;31.09;46.51
43553;BME280;29153;42.696;23.218;2023-06-24T12:20:49;94384.25;;;31.10;53.17
43553;BME280;29153;42.696;23.218;2023-06-24T12:23:17;94384.98;;;30.92;56.68
43553;BME280;29153;42.696;23.218;2023-06-24T12:25:44;94383.98;;;30.76;56.23
43553;BME280;29153;42.696;23.218;2023-06-24T12:28:12;94376.80;;;30.70;50.70
43553;BME280;29153;42.696;23.218;2023-06-24T12:30:40;94378.88;;;30.55;48.34
43553;BME280;29153;42.696;23.218;2023-06-24T12:33:07;94380.55;;;30.42;50.52
43553;BME280;29153;42.696;23.218;2023-06-24T12:35:35;94330.91;;;29.96;51.32
43553;BME280;29153;42.696;23.218;2023-06-24T12:38:03;94371.77;;;30.13;57.45
43553;BME280;29153;42.696;23.218;2023-06-24T12:40:30;94378.55;;;29.95;59.17
43553;BME280;29153;42.696;23.218;2023-06-24T12:42:58;94390.73;;;29.72;56.70
43553;BME280;29153;42.696;23.218;2023-06-24T12:45:26;94408.94;;;29.57;60.05
43553;BME280;29153;42.696;23.218;2023-06-24T12:47:53;94432.42;;;29.36;50.83
43553;BME280;29153;42.696;23.218;2023-06-24T12:50:20;94386.88;;;29.09;52.12
43553;BME280;29153;42.696;23.218;2023-06-24T12:52:48;94445.11;;;29.35;64.38
43553;BME280;29153;42.696;23.218;2023-06-24T12:55:15;94446.50;;;29.14;62.23
43553;BME280;29153;42.696;23.218;2023-06-24T12:57:43;94452.37;;;28.80;55.86
43553;BME280;29153;42.696;23.218;2023-06-24T13:00:11;94443.21;;;28.89;65.53
43553;BME280;29153;42.696;23.218;2023-06-24T13:02:39;94437.20;;;28.79;67.72
43553;BME280;29153;42.696;23.218;2023-06-24T13:05:08;94435.63;;;28.57;64.13
43553;BME280;29153;42.696;23.218;2023-06-24T13:07:36;94426.85;;;28.47;69.97
43553;BME280;29153;42.696;23.218;2023-06-24T13:10:04;94372.31;;;27.97;71.52
43553;BME280;29153;42.696;23.218;2023-06-24T13:12:34;94440.19;;;27.96;65.21
43553;BME280;29153;42.696;23.218;2023-06-24T13:15:03;94384.44;;;27.51;70.69
43553;BME280;29153;42.696;23.218;2023-06-24T13:17:34;94428.80;;;27.59;71.48
43553;BME280;29153;42.696;23.218;2023-06-24T13:20:03;94421.66;;;27.30;72.54
43553;BME280;29153;42.696;23.218;2023-06-24T13:22:30;94419.07;;;27.16;72.43
43553;BME280;29153;42.696;23.218;2023-06-24T13:25:00;94416.41;;;26.96;72.00
43553;BME280;29153;42.696;23.218;2023-06-24T13:27:28;94406.67;;;26.92;71.37
43553;BME280;29153;42.696;23.218;2023-06-24T13:29:55;94418.39;;;26.76;72.26
43553;BME280;29153;42.696;23.218;2023-06-24T13:32:23;94421.42;;;26.63;68.26
43553;BME280;29153;42.696;23.218;2023-06-24T13:34:50;94434.80;;;26.62;65.57
43553;BME280;29153;42.696;23.218;2023-06-24T13:37:17;94450.38;;;26.65;63.83
43553;BME280;29153;42.696;23.218;2023-06-24T13:39:45;94467.44;;;26.66;69.07
43553;BME280;29153;42.696;23.218;2023-06-24T13:42:13;94494.98;;;26.61;68.82
43553;BME280;29153;42.696;23.218;2023-06-24T13:44:41;94513.40;;;26.61;65.86
43553;BME280;29153;42.696;23.218;2023-06-24T13:47:08;94538.89;;;26.26;66.16
43553;BME280;29153;42.696;23.218;2023-06-24T13:49:36;94555.89;;;26.06;68.88
43553;BME280;29153;42.696;23.218;2023-06-24T13:52:03;94572.75;;;25.89;63.60
43553;BME280;29153;42.696;23.218;2023-06-24T13:54:30;94567.47;;;25.70;63.14
43553;BME280;29153;42.696;23.218;2023-06-24T13:57:00;94558.23;;;25.48;61.25
43553;BME280;29153;42.696;23.218;2023-06-24T13:59:27;94550.58;;;25.27;62.24
43553;BME280;29153;42.696;23.218;2023-06-24T14:01:53;94548.39;;;25.10;66.54
43553;BME280;29153;42.696;23.218;2023-06-24T14:04:22;94532.52;;;24.99;67.51
43553;BME280;29153;42.696;23.218;2023-06-24T14:06:49;94537.48;;;24.84;68.41
43553;BME280;29153;42.696;23.218;2023-06-24T14:09:16;94526.95;;;24.79;66.58
43553;BME280;29153;42.696;23.218;2023-06-24T14:11:44;94518.25;;;24.79;73.14
43553;BME280;29153;42.696;23.218;2023-06-24T14:14:11;94517.93;;;24.71;65.09
43553;BME280;29153;42.696;23.218;2023-06-24T14:16:39;94508.26;;;24.61;65.70
43553;BME280;29153;42.696;23.218;2023-06-24T14:19:12;94490.81;;;24.58;67.75
43553;BME280;29153;42.696;23.218;2023-06-24T14:21:44;94473.94;;;24.55;64.93
43553;BME280;29153;42.696;23.218;2023-06-24T14:24:10;94457.05;;;24.65;64.81
43553;BME280;29153;42.696;23.218;2023-06-24T14:26:40;94442.64;;;24.71;68.13
43553;BME280;29153;42.696;23.218;2023-06-24T14:29:08;94427.16;;;24.71;68.74
43553;BME280;29153;42.696;23.218;2023-06-24T14:31:35;94421.05;;;24.78;69.22
43553;BME280;29153;42.696;23.218;2023-06-24T14:34:04;94419.54;;;24.90;72.36
43553;BME280;29153;42.696;23.218;2023-06-24T14:36:36;94414.73;;;24.93;71.72
43553;BME280;29153;42.696;23.218;2023-06-24T14:39:05;94407.22;;;24.96;70.44
43553;BME280;29153;42.696;23.218;2023-06-24T14:41:34;94407.74;;;24.92;72.25
43553;BME280;29153;42.696;23.218;2023-06-24T14:44:02;94405.98;;;24.90;74.75
43553;BME280;29153;42.696;23.218;2023-06-24T14:46:29;94412.28;;;24.98;76.90
43553;BME280;29153;42.696;23.218;2023-06-24T14:48:57;94415.50;;;25.07;78.79
43553;BME280;29153;42.696;23.218;2023-06-24T14:51:24;94419.14;;;25.05;79.33
43553;BME280;29153;42.696;23.218;2023-06-24T14:53:51;94422.11;;;25.09;79.77
43553;BME280;29153;42.696;23.218;2023-06-24T14:56:19;94421.75;;;25.11;78.35
43553;BME280;29153;42.696;23.218;2023-06-24T14:58:47;94433.99;;;25.14;79.12
43553;BME280;29153;42.696;23.218;2023-06-24T15:01:14;94449.95;;;25.19;79.61
43553;BME280;29153;42.696;23.218;2023-06-24T15:03:44;94457.87;;;25.18;81.04
43553;BME280;29153;42.696;23.218;2023-06-24T15:06:12;94478.41;;;25.19;80.17
43553;BME280;29153;42.696;23.218;2023-06-24T15:08:40;94495.14;;;25.12;78.65
43553;BME280;29153;42.696;23.218;2023-06-24T15:11:07;94496.14;;;25.13;80.29
43553;BME280;29153;42.696;23.218;2023-06-24T15:13:34;94502.44;;;25.08;81.70
43553;BME280;29153;42.696;23.218;2023-06-24T15:16:02;94528.79;;;24.84;83.66
43553;BME280;29153;42.696;23.218;2023-06-24T15:18:31;94531.18;;;24.76;78.64
43553;BME280;29153;42.696;23.218;2023-06-24T15:20:59;94524.02;;;24.78;76.28
43553;BME280;29153;42.696;23.218;2023-06-24T15:23:26;94519.55;;;24.85;81.63
43553;BME280;29153;42.696;23.218;2023-06-24T15:25:53;94516.98;;;24.73;79.55
43553;BME280;29153;42.696;23.218;2023-06-24T15:28:21;94511.13;;;24.81;83.71
43553;BME280;29153;42.696;23.218;2023-06-24T15:30:48;94501.16;;;24.75;84.52
43553;BME280;29153;42.696;23.218;2023-06-24T15:33:16;94493.24;;;24.76;84.61
43553;BME280;29153;42.696;23.218;2023-06-24T15:35:43;94495.77;;;24.66;81.51
43553;BME280;29153;42.696;23.218;2023-06-24T15:38:10;94485.05;;;24.60;79.01
43553;BME280;29153;42.696;23.218;2023-06-24T15:40:39;94482.34;;;24.60;80.20
43553;BME280;29153;42.696;23.218;2023-06-24T15:43:07;94474.73;;;24.56;80.76
43553;BME280;29153;42.696;23.218;2023-06-24T15:45:35;94473.45;;;24.49;83.00
43553;BME280;29153;42.696;23.218;2023-06-24T15:48:04;94476.11;;;24.46;84.60
43553;BME280;29153;42.696;23.218;2023-06-24T15:50:31;94479.39;;;24.45;85.08
43553;BME280;29153;42.696;23.218;2023-06-24T15:52:59;94473.43;;;24.36;85.33
43553;BME280;29153;42.696;23.218;2023-06-24T15:55:27;94475.97;;;24.26;85.65
43553;BME280;29153;42.696;23.218;2023-06-24T15:57:54;94480.89;;;24.20;87.68
43553;BME280;29153;42.696;23.218;2023-06-24T16:00:22;94495.42;;;24.12;87.79
43553;BME280;29153;42.696;23.218;2023-06-24T16:02:49;94494.00;;;24.09;86.54
43553;BME280;29153;42.696;23.218;2023-06-24T16:05:17;94501.47;;;24.05;87.91
43553;BME280;29153;42.696;23.218;2023-06-24T16:07:45;94503.20;;;24.04;89.04
43553;BME280;29153;42.696;23.218;2023-06-24T16:10:12;94517.52;;;24.04;90.41
43553;BME280;29153;42.696;23.218;2023-06-24T16:12:40;94530.61;;;23.93;90.16
43553;BME280;29153;42.696;23.218;2023-06-24T16:15:08;94528.12;;;23.75;91.17
43553;BME280;29153;42.696;23.218;2023-06-24T16:17:35;94528.48;;;23.64;91.86
43553;BME280;29153;42.696;23.218;2023-06-24T16:20:03;94529.42;;;23.62;92.69
43553;BME280;29153;42.696;23.218;2023-06-24T16:22:34;94529.84;;;23.64;93.00
43553;BME280;29153;42.696;23.218;2023-06-24T16:25:01;94543.86;;;23.59;94.08
43553;BME280;29153;42.696;23.218;2023-06-24T16:27:29;94544.84;;;23.51;94.38
43553;BME280;29153;42.696;23.218;2023-06-24T16:29:57;94543.84;;;23.50;94.34
43553;BME280;29153;42.696;23.218;2023-06-24T16:32:24;94545.84;;;23.43;95.49
43553;BME280;29153;42.696;23.218;2023-06-24T16:34:51;94539.81;;;23.34;96.38
43553;BME280;29153;42.696;23.218;2023-06-24T16:37:19;94541.02;;;23.27;97.24
43553;BME280;29153;42.696;23.218;2023-06-24T16:39:46;94530.70;;;23.23;98.21
43553;BME280;29153;42.696;23.218;2023-06-24T16:42:17;94532.09;;;23.17;99.93
43553;BME280;29153;42.696;23.218;2023-06-24T16:44:44;94519.12;;;23.07;100.00
43553;BME280;29153;42.696;23.218;2023-06-24T16:47:16;94511.01;;;23.07;99.30
43553;BME280;29153;42.696;23.218;2023-06-24T16:49:48;94493.89;;;23.09;99.43
43553;BME280;29153;42.696;23.218;2023-06-24T16:52:16;94480.91;;;22.99;100.00
43553;BME280;29153;42.696;23.218;2023-06-24T16:54:44;94461.09;;;23.01;97.59
43553;BME280;29153;42.696;23.218;2023-06-24T16:57:12;94449.58;;;23.04;91.69
43553;BME280;29153;42.696;23.218;2023-06-24T16:59:41;94433.86;;;23.00;88.67
43553;BME280;29153;42.696;23.218;2023-06-24T17:02:09;94428.60;;;22.97;86.32
43553;BME280;29153;42.696;23.218;2023-06-24T17:04:38;94430.49;;;22.87;86.49
43553;BME280;29153;42.696;23.218;2023-06-24T17:07:05;94423.96;;;22.88;87.83
43553;BME280;29153;42.696;23.218;2023-06-24T17:09:34;94428.99;;;22.90;89.01
43553;BME280;29153;42.696;23.218;2023-06-24T17:12:05;94363.88;;;22.50;89.83
43553;BME280;29153;42.696;23.218;2023-06-24T17:14:33;94437.44;;;22.79;93.52